Aviation Digital Data Service (ADDS)

Output produced by METARs form (2016 UTC 18 July 2018)
found at http://www.aviationweather.gov/adds/metars/
 
METAR text: KBVI 181947Z AUTO 00000KT 10SM BKN055 25/11 A3007
Conditions at: KBVI (BEAVER FALLS ARP, PA, US) observed 1947 UTC 18 July 2018
Temperature: 25.0°C (77°F)
Dewpoint: 11.0°C (52°F) [RH = 41%]
Pressure (altimeter): 30.07 inches Hg (1018.4 mb)
Winds: calm
Visibility: 10 or more miles (16+ km)
Ceiling: 5500 feet AGL
Clouds: broken clouds at 5500 feet AGL
Weather: no significant weather observed at this time

METAR text: KBVI 181847Z AUTO 33005KT 10SM SCT055 26/11 A3008
Conditions at: KBVI (BEAVER FALLS ARP, PA, US) observed 1847 UTC 18 July 2018
Temperature: 26.0°C (79°F)
Dewpoint: 11.0°C (52°F) [RH = 39%]
Pressure (altimeter): 30.08 inches Hg (1018.7 mb)
Winds: from the NNW (330 degrees) at 6 MPH (5 knots; 2.6 m/s)
Visibility: 10 or more miles (16+ km)
Ceiling: at least 12,000 feet AGL
Clouds: scattered clouds at 5500 feet AGL
Weather: no significant weather observed at this time

METAR text: KBVI 181747Z AUTO 02004KT 10SM SCT050 25/11 A3008
Conditions at: KBVI (BEAVER FALLS ARP, PA, US) observed 1747 UTC 18 July 2018
Temperature: 25.0°C (77°F)
Dewpoint: 11.0°C (52°F) [RH = 41%]
Pressure (altimeter): 30.08 inches Hg (1018.7 mb)
Winds: from the NNE (20 degrees) at 5 MPH (4 knots; 2.1 m/s)
Visibility: 10 or more miles (16+ km)
Ceiling: at least 12,000 feet AGL
Clouds: scattered clouds at 5000 feet AGL
Weather: no significant weather observed at this time

METAR text: KBVI 181647Z AUTO 32004KT 10SM SCT048 24/11 A3010
Conditions at: KBVI (BEAVER FALLS ARP, PA, US) observed 1647 UTC 18 July 2018
Temperature: 24.0°C (75°F)
Dewpoint: 11.0°C (52°F) [RH = 44%]
Pressure (altimeter): 30.10 inches Hg (1019.4 mb)
Winds: from the NW (320 degrees) at 5 MPH (4 knots; 2.1 m/s)
Visibility: 10 or more miles (16+ km)
Ceiling: at least 12,000 feet AGL
Clouds: scattered clouds at 4800 feet AGL
Weather: no significant weather observed at this time

METAR text: KBVI 181547Z AUTO 36007KT 10SM SCT044 23/11 A3010
Conditions at: KBVI (BEAVER FALLS ARP, PA, US) observed 1547 UTC 18 July 2018
Temperature: 23.0°C (73°F)
Dewpoint: 11.0°C (52°F) [RH = 47%]
Pressure (altimeter): 30.10 inches Hg (1019.4 mb)
Winds: from the N (360 degrees) at 8 MPH (7 knots; 3.6 m/s)
Visibility: 10 or more miles (16+ km)
Ceiling: at least 12,000 feet AGL
Clouds: scattered clouds at 4400 feet AGL
Weather: no significant weather observed at this time

METAR text: KBVI 181447Z AUTO 35004KT 10SM SCT029 22/13 A3010
Conditions at: KBVI (BEAVER FALLS ARP, PA, US) observed 1447 UTC 18 July 2018
Temperature: 22.0°C (72°F)
Dewpoint: 13.0°C (55°F) [RH = 57%]
Pressure (altimeter): 30.10 inches Hg (1019.4 mb)
Winds: from the N (350 degrees) at 5 MPH (4 knots; 2.1 m/s)
Visibility: 10 or more miles (16+ km)
Ceiling: at least 12,000 feet AGL
Clouds: scattered clouds at 2900 feet AGL
Weather: no significant weather observed at this time

METAR text: KBVI 181347Z AUTO 33004KT 10SM SCT021 21/15 A3010
Conditions at: KBVI (BEAVER FALLS ARP, PA, US) observed 1347 UTC 18 July 2018
Temperature: 21.0°C (70°F)
Dewpoint: 15.0°C (59°F) [RH = 69%]
Pressure (altimeter): 30.10 inches Hg (1019.4 mb)
Winds: from the NNW (330 degrees) at 5 MPH (4 knots; 2.1 m/s)
Visibility: 10 or more miles (16+ km)
Ceiling: at least 12,000 feet AGL
Clouds: scattered clouds at 2100 feet AGL
Weather: no significant weather observed at this time

METAR text: KBVI 181247Z AUTO 35004KT 10SM CLR 18/14 A3009
Conditions at: KBVI (BEAVER FALLS ARP, PA, US) observed 1247 UTC 18 July 2018
Temperature: 18.0°C (64°F)
Dewpoint: 14.0°C (57°F) [RH = 77%]
Pressure (altimeter): 30.09 inches Hg (1019.0 mb)
Winds: from the N (350 degrees) at 5 MPH (4 knots; 2.1 m/s)
Visibility: 10 or more miles (16+ km)
Ceiling: at least 12,000 feet AGL
Clouds: sky clear below 12,000 feet AGL
Weather: no significant weather observed at this time

METAR text: KBVI 181147Z AUTO 33004KT 10SM CLR 17/13 A3008
Conditions at: KBVI (BEAVER FALLS ARP, PA, US) observed 1147 UTC 18 July 2018
Temperature: 17.0°C (63°F)
Dewpoint: 13.0°C (55°F) [RH = 77%]
Pressure (altimeter): 30.08 inches Hg (1018.7 mb)
Winds: from the NNW (330 degrees) at 5 MPH (4 knots; 2.1 m/s)
Visibility: 10 or more miles (16+ km)
Ceiling: at least 12,000 feet AGL
Clouds: sky clear below 12,000 feet AGL
Weather: no significant weather observed at this time

METAR text: KBVI 181047Z AUTO 31004KT 10SM CLR 14/12 A3007
Conditions at: KBVI (BEAVER FALLS ARP, PA, US) observed 1047 UTC 18 July 2018
Temperature: 14.0°C (57°F)
Dewpoint: 12.0°C (54°F) [RH = 88%]
Pressure (altimeter): 30.07 inches Hg (1018.4 mb)
Winds: from the NW (310 degrees) at 5 MPH (4 knots; 2.1 m/s)
Visibility: 10 or more miles (16+ km)
Ceiling: at least 12,000 feet AGL
Clouds: sky clear below 12,000 feet AGL
Weather: no significant weather observed at this time

METAR text: KBVI 180047Z AUTO 35007KT 10SM CLR 22/14 A3000 RMK LAST
Conditions at: KBVI (BEAVER FALLS ARP, PA, US) observed 0047 UTC 18 July 2018
Temperature: 22.0°C (72°F)
Dewpoint: 14.0°C (57°F) [RH = 60%]
Pressure (altimeter): 30.00 inches Hg (1016.0 mb)
Winds: from the N (350 degrees) at 8 MPH (7 knots; 3.6 m/s)
Visibility: 10 or more miles (16+ km)
Ceiling: at least 12,000 feet AGL
Clouds: sky clear below 12,000 feet AGL
Weather: no significant weather observed at this time

METAR text: KBVI 172347Z AUTO 35007KT 10SM CLR 22/13 A2999
Conditions at: KBVI (BEAVER FALLS ARP, PA, US) observed 2347 UTC 17 July 2018
Temperature: 22.0°C (72°F)
Dewpoint: 13.0°C (55°F) [RH = 57%]
Pressure (altimeter): 29.99 inches Hg (1015.7 mb)
Winds: from the N (350 degrees) at 8 MPH (7 knots; 3.6 m/s)
Visibility: 10 or more miles (16+ km)
Ceiling: at least 12,000 feet AGL
Clouds: sky clear below 12,000 feet AGL
Weather: no significant weather observed at this time

METAR text: KBVI 172247Z AUTO 35007KT 10SM CLR 25/14 A2996
Conditions at: KBVI (BEAVER FALLS ARP, PA, US) observed 2247 UTC 17 July 2018
Temperature: 25.0°C (77°F)
Dewpoint: 14.0°C (57°F) [RH = 50%]
Pressure (altimeter): 29.96 inches Hg (1014.6 mb)
Winds: from the N (350 degrees) at 8 MPH (7 knots; 3.6 m/s)
Visibility: 10 or more miles (16+ km)
Ceiling: at least 12,000 feet AGL
Clouds: sky clear below 12,000 feet AGL
Weather: no significant weather observed at this time

METAR text: KBVI 172147Z AUTO 35009G16KT 10SM SCT050 26/14 A2995
Conditions at: KBVI (BEAVER FALLS ARP, PA, US) observed 2147 UTC 17 July 2018
Temperature: 26.0°C (79°F)
Dewpoint: 14.0°C (57°F) [RH = 48%]
Pressure (altimeter): 29.95 inches Hg (1014.3 mb)
Winds: from the N (350 degrees) at 10 MPH (9 knots; 4.7 m/s)
gusting to 18 MPH (16 knots; 8.3 m/s)
Visibility: 10 or more miles (16+ km)
Ceiling: at least 12,000 feet AGL
Clouds: scattered clouds at 5000 feet AGL
Weather: no significant weather observed at this time

METAR text: KBVI 172047Z AUTO 35009KT 10SM SCT055 27/14 A2993
Conditions at: KBVI (BEAVER FALLS ARP, PA, US) observed 2047 UTC 17 July 2018
Temperature: 27.0°C (81°F)
Dewpoint: 14.0°C (57°F) [RH = 45%]
Pressure (altimeter): 29.93 inches Hg (1013.6 mb)
Winds: from the N (350 degrees) at 10 MPH (9 knots; 4.7 m/s)
Visibility: 10 or more miles (16+ km)
Ceiling: at least 12,000 feet AGL
Clouds: scattered clouds at 5500 feet AGL
Weather: no significant weather observed at this time